Time;durP1;ratioP1;P1;durP2;ratioP2;P2;SDS_P1;SDS_P2;PMS_P1;PMS_P2;Temp;Humidity;BMP_temperature;BMP_pressure;BME280_temperature;BME280_humidity;BME280_pressure;Samples;Min_cycle;Max_cycle;Signal;HPM_P1;HPM_P2
2022/02/05 00:01:52;;;;;;;;;;;2.90;81.00;;;;;;4867017;29;19935;-68
2022/02/05 00:04:20;;;;;;;;;;;2.90;81.00;;;;;;4878789;29;20382;-67
2022/02/05 00:06:52;;;;;;;;;;;2.90;81.00;;;;;;4879143;29;19935;-68
2022/02/05 00:14:50;;;;;;;;;;;3.00;80.20;;;;;;4892686;29;20041;-68
2022/02/05 00:39:54;;;;;;;;;;;2.90;80.00;;;;;;4874257;29;20383;-68
2022/02/05 00:42:30;;;;;;;;;;;2.90;80.10;;;;;;4877073;29;19927;-67
2022/02/05 00:44:57;;;;;;;;;;;2.80;80.20;;;;;;4875120;29;19939;-67
2022/02/05 00:47:26;;;;;;;;;;;2.80;80.20;;;;;;4877512;29;19928;-68
2022/02/05 00:49:58;;;;;;;;;;;2.80;80.30;;;;;;4877582;29;19935;-68
2022/02/05 00:52:27;;;;;;;;;;;2.80;80.40;;;;;;4873969;29;19935;-68
2022/02/05 00:55:02;;;;;;;;;;;2.70;80.60;;;;;;4875416;29;19935;-68
2022/02/05 00:57:44;;;;;;;;;;;2.70;80.70;;;;;;4877799;29;19936;-68
2022/02/05 01:00:13;;;;;;;;;;;2.70;80.70;;;;;;4877789;29;19954;-67
2022/02/05 01:02:41;;;;;;;;;;;2.70;80.70;;;;;;4878821;29;19927;-68
2022/02/05 01:05:08;;;;;;;;;;;2.70;80.70;;;;;;4877359;29;20429;-68
2022/02/05 01:07:38;;;;;;;;;;;2.60;80.70;;;;;;4870843;29;20306;-68
2022/02/05 01:10:06;;;;;;;;;;;2.50;81.00;;;;;;4876802;29;20355;-68
2022/02/05 01:12:37;;;;;;;;;;;2.50;81.00;;;;;;4876837;29;19936;-68
2022/02/05 01:15:05;;;;;;;;;;;2.50;81.00;;;;;;4875572;29;19935;-68
2022/02/05 01:17:43;;;;;;;;;;;2.40;81.10;;;;;;4877556;29;19927;-68
2022/02/05 01:22:51;;;;;;;;;;;2.30;81.30;;;;;;4876669;29;19935;-68
2022/02/05 01:25:23;;;;;;;;;;;2.20;81.50;;;;;;4876666;29;20385;-68
2022/02/05 01:27:56;;;;;;;;;;;2.10;81.70;;;;;;4873723;29;19928;-68
2022/02/05 01:30:28;;;;;;;;;;;2.10;81.90;;;;;;4876892;29;20394;-68
2022/02/05 01:35:49;;;;;;;;;;;2.00;82.30;;;;;;4876530;29;20382;-68
2022/02/05 01:52:23;;;;;;;;;;;2.30;82.40;;;;;;4876057;29;19928;-68
2022/02/05 02:05:37;;;;;;;;;;;2.60;81.50;;;;;;4887853;29;19935;-68
2022/02/05 02:11:16;;;;;;;;;;;2.70;81.40;;;;;;4878393;29;19928;-67
2022/02/05 02:21:33;;;;;;;;;;;2.70;81.20;;;;;;4877089;29;20119;-68
2022/02/05 02:24:16;;;;;;;;;;;2.70;81.10;;;;;;4878315;29;19951;-68
2022/02/05 02:29:29;;;;;;;;;;;2.70;81.30;;;;;;4879359;29;19939;-68
2022/02/05 02:31:57;;;;;;;;;;;2.60;81.50;;;;;;4878867;29;20301;-68
2022/02/05 02:34:29;;;;;;;;;;;2.50;81.70;;;;;;4873664;29;19935;-68
2022/02/05 02:37:04;;;;;;;;;;;2.50;82.10;;;;;;4878446;29;19928;-68
2022/02/05 02:39:44;;;;;;;;;;;2.40;82.20;;;;;;4878294;29;19928;-68
2022/02/05 02:42:12;;;;;;;;;;;2.30;82.60;;;;;;4878554;29;19928;-68
2022/02/05 02:44:39;;;;;;;;;;;2.30;83.00;;;;;;4877974;29;19950;-68
2022/02/05 02:47:07;;;;;;;;;;;2.30;83.30;;;;;;4878904;29;20279;-68
2022/02/05 02:57:56;;;;;;;;;;;2.20;84.20;;;;;;4877973;29;20321;-68
2022/02/05 03:00:26;;;;;;;;;;;2.20;84.40;;;;;;4877593;29;19928;-67
2022/02/05 03:02:54;;;;;;;;;;;2.10;84.40;;;;;;4876714;29;19928;-67
2022/02/05 03:05:22;;;;;;;;;;;2.10;84.50;;;;;;4877433;29;19928;-67
2022/02/05 03:07:49;;;;;;;;;;;2.10;84.60;;;;;;4878468;29;19928;-67
2022/02/05 03:10:17;;;;;;;;;;;2.00;84.60;;;;;;4878574;29;19928;-67
2022/02/05 03:12:44;;;;;;;;;;;2.00;84.90;;;;;;4878476;29;19928;-67
2022/02/05 03:15:14;;;;;;;;;;;2.00;85.10;;;;;;4877741;29;20310;-67
2022/02/05 03:18:02;;;;;;;;;;;2.00;85.10;;;;;;4879178;29;19928;-67
2022/02/05 03:20:29;;;;;;;;;;;2.00;85.00;;;;;;4878536;29;19928;-67
2022/02/05 03:22:57;;;;;;;;;;;2.00;85.10;;;;;;4878839;29;19928;-67
2022/02/05 03:25:25;;;;;;;;;;;2.00;85.20;;;;;;4877284;29;19927;-67
2022/02/05 03:27:52;;;;;;;;;;;2.00;85.20;;;;;;4878313;29;19943;-67
2022/02/05 03:30:19;;;;;;;;;;;2.00;85.10;;;;;;4877035;29;20394;-67
2022/02/05 03:32:47;;;;;;;;;;;2.10;85.10;;;;;;4878276;29;19936;-67
2022/02/05 03:35:14;;;;;;;;;;;2.10;85.10;;;;;;4878244;29;19935;-67
2022/02/05 03:37:42;;;;;;;;;;;2.10;85.10;;;;;;4879190;29;20279;-67
2022/02/05 03:40:10;;;;;;;;;;;2.20;85.10;;;;;;4877989;29;19939;-67
2022/02/05 03:42:38;;;;;;;;;;;2.20;85.00;;;;;;4875175;29;19935;-67
2022/02/05 03:45:05;;;;;;;;;;;2.20;85.00;;;;;;4877889;29;20382;-67
2022/02/05 03:47:33;;;;;;;;;;;2.20;84.90;;;;;;4876900;29;19938;-67
2022/02/05 03:50:03;;;;;;;;;;;2.20;84.90;;;;;;4877924;29;19928;-67
2022/02/05 03:52:30;;;;;;;;;;;2.30;84.80;;;;;;4878043;29;19935;-70
2022/02/05 03:54:57;;;;;;;;;;;2.30;84.70;;;;;;4876370;29;19936;-68
2022/02/05 03:57:25;;;;;;;;;;;2.30;84.60;;;;;;4877825;29;19934;-68
2022/02/05 03:59:52;;;;;;;;;;;2.30;84.50;;;;;;4876876;29;19935;-68
2022/02/05 04:02:20;;;;;;;;;;;2.30;84.40;;;;;;4877824;29;19927;-68
2022/02/05 04:04:47;;;;;;;;;;;2.30;84.20;;;;;;4877899;29;20302;-68
2022/02/05 04:07:15;;;;;;;;;;;2.30;84.20;;;;;;4876701;29;19928;-68
2022/02/05 04:09:42;;;;;;;;;;;2.30;84.20;;;;;;4875879;29;19928;-67
2022/02/05 04:17:42;;;;;;;;;;;2.30;84.10;;;;;;4860707;29;19928;-67
2022/02/05 04:20:10;;;;;;;;;;;2.30;84.00;;;;;;4877650;29;20396;-67
2022/02/05 04:22:37;;;;;;;;;;;2.30;84.00;;;;;;4876213;29;19935;-67
2022/02/05 04:25:05;;;;;;;;;;;2.30;84.00;;;;;;4877369;29;20421;-67
2022/02/05 04:27:32;;;;;;;;;;;2.30;84.00;;;;;;4877007;29;19928;-68
2022/02/05 04:30:00;;;;;;;;;;;2.20;84.10;;;;;;4877103;29;20053;-67
2022/02/05 04:32:27;;;;;;;;;;;2.20;84.10;;;;;;4877672;29;19935;-67
2022/02/05 04:34:54;;;;;;;;;;;2.20;84.20;;;;;;4874450;29;19936;-67
2022/02/05 04:37:25;;;;;;;;;;;2.20;84.20;;;;;;4876170;29;19928;-67
2022/02/05 04:40:06;;;;;;;;;;;2.30;84.10;;;;;;4876538;29;19928;-67
2022/02/05 04:42:44;;;;;;;;;;;2.30;84.20;;;;;;4847373;29;19932;-68
2022/02/05 05:00:58;;;;;;;;;;;2.30;83.90;;;;;;4875825;29;19950;-68
2022/02/05 05:11:45;;;;;;;;;;;2.40;83.70;;;;;;4871910;29;20409;-68
2022/02/05 05:19:50;;;;;;;;;;;2.50;83.70;;;;;;4800750;29;19929;-67
2022/02/05 05:22:18;;;;;;;;;;;2.50;83.70;;;;;;4805022;29;20388;-67
2022/02/05 05:24:45;;;;;;;;;;;2.40;83.80;;;;;;4806731;29;19937;-67
2022/02/05 05:27:13;;;;;;;;;;;2.30;84.00;;;;;;4807156;29;19937;-67
2022/02/05 05:29:40;;;;;;;;;;;2.30;84.30;;;;;;4806426;29;19929;-67
2022/02/05 05:32:07;;;;;;;;;;;2.30;84.40;;;;;;4805430;29;19929;-67
2022/02/05 05:34:35;;;;;;;;;;;2.30;84.50;;;;;;4804034;29;19944;-67
2022/02/05 05:37:03;;;;;;;;;;;2.30;84.50;;;;;;4787318;29;19936;-67
2022/02/05 05:39:35;;;;;;;;;;;2.20;84.60;;;;;;4803745;29;19929;-67
2022/02/05 05:42:06;;;;;;;;;;;2.20;84.80;;;;;;4803051;29;20391;-67
2022/02/05 05:44:54;;;;;;;;;;;2.10;85.00;;;;;;4803395;29;20039;-67
2022/02/05 05:47:33;;;;;;;;;;;2.10;85.20;;;;;;4779420;29;19929;-67
2022/02/05 05:50:08;;;;;;;;;;;2.00;85.40;;;;;;4803137;29;19948;-67
2022/02/05 05:52:36;;;;;;;;;;;2.10;85.70;;;;;;4803753;29;19930;-67
2022/02/05 05:55:04;;;;;;;;;;;2.10;86.10;;;;;;4804290;29;20308;-67
2022/02/05 05:57:32;;;;;;;;;;;2.10;86.30;;;;;;4874945;29;19928;-67
2022/02/05 05:59:59;;;;;;;;;;;2.20;86.50;;;;;;4878857;29;20430;-67
2022/02/05 06:02:27;;;;;;;;;;;2.20;86.50;;;;;;4877905;29;19928;-67
2022/02/05 06:04:54;;;;;;;;;;;2.30;86.50;;;;;;4878163;29;19951;-67
2022/02/05 06:07:21;;;;;;;;;;;2.30;86.60;;;;;;4877505;29;19928;-67
2022/02/05 06:09:49;;;;;;;;;;;2.40;86.50;;;;;;4879198;29;20545;-67
2022/02/05 06:12:16;;;;;;;;;;;2.40;86.50;;;;;;4879064;29;20326;-67
2022/02/05 06:14:44;;;;;;;;;;;2.50;86.50;;;;;;4878413;29;19928;-67
2022/02/05 06:17:21;;;;;;;;;;;2.70;86.50;;;;;;4878833;29;19927;-67
2022/02/05 06:19:48;;;;;;;;;;;2.70;86.20;;;;;;4878321;29;19935;-67
2022/02/05 06:22:16;;;;;;;;;;;2.70;86.30;;;;;;4878238;29;19936;-67
2022/02/05 06:24:43;;;;;;;;;;;2.70;86.30;;;;;;4878819;29;20392;-67
2022/02/05 06:27:11;;;;;;;;;;;2.80;86.20;;;;;;4860288;29;19928;-67
2022/02/05 06:29:38;;;;;;;;;;;2.80;86.20;;;;;;4878022;29;19936;-67
2022/02/05 06:32:06;;;;;;;;;;;2.90;86.10;;;;;;4876793;29;19928;-67
2022/02/05 06:34:33;;;;;;;;;;;2.80;86.10;;;;;;4877792;29;19931;-67
2022/02/05 06:37:01;;;;;;;;;;;2.80;86.10;;;;;;4878215;29;19928;-67
2022/02/05 06:39:28;;;;;;;;;;;2.80;86.20;;;;;;4811514;29;1986390;-67
2022/02/05 06:41:56;;;;;;;;;;;2.90;86.40;;;;;;4879651;29;19927;-67
2022/02/05 06:44:23;;;;;;;;;;;2.80;86.40;;;;;;4876949;29;20341;-67
2022/02/05 06:46:51;;;;;;;;;;;2.80;86.50;;;;;;4875605;29;19935;-67
2022/02/05 06:49:19;;;;;;;;;;;2.80;86.70;;;;;;4884611;29;19928;-67
2022/02/05 06:51:47;;;;;;;;;;;2.80;86.80;;;;;;4878897;29;20317;-67
2022/02/05 06:54:14;;;;;;;;;;;2.90;86.80;;;;;;4876485;29;19935;-67
2022/02/05 06:56:42;;;;;;;;;;;2.90;86.70;;;;;;4877278;29;19928;-67
2022/02/05 06:59:09;;;;;;;;;;;3.00;86.60;;;;;;4878713;29;19934;-67
2022/02/05 07:01:37;;;;;;;;;;;3.10;86.40;;;;;;4879188;29;19943;-67
2022/02/05 07:04:05;;;;;;;;;;;3.10;86.30;;;;;;4878778;29;19928;-67
2022/02/05 07:06:33;;;;;;;;;;;3.20;86.20;;;;;;4879296;29;19928;-67
2022/02/05 07:09:04;;;;;;;;;;;3.20;86.10;;;;;;4878996;29;19998;-67
2022/02/05 07:11:35;;;;;;;;;;;3.20;86.10;;;;;;4879344;29;20380;-67
2022/02/05 07:14:05;;;;;;;;;;;3.30;86.00;;;;;;4877591;29;20409;-67
2022/02/05 07:16:40;;;;;;;;;;;3.30;85.80;;;;;;4877697;29;19928;-67
2022/02/05 07:21:40;;;;;;;;;;;3.30;85.80;;;;;;4878963;29;19927;-67
2022/02/05 07:29:24;;;;;;;;;;;3.40;85.80;;;;;;4878684;29;19928;-67
2022/02/05 07:31:52;;;;;;;;;;;3.30;85.70;;;;;;4883370;29;19934;-67
2022/02/05 07:34:20;;;;;;;;;;;3.30;85.80;;;;;;4884350;29;19927;-67
2022/02/05 07:36:49;;;;;;;;;;;3.30;85.90;;;;;;4886493;29;19927;-67
2022/02/05 07:39:17;;;;;;;;;;;3.20;85.90;;;;;;4879254;29;20002;-68
2022/02/05 07:41:44;;;;;;;;;;;3.10;86.10;;;;;;4881290;29;19935;-67
2022/02/05 07:44:13;;;;;;;;;;;3.00;86.20;;;;;;4880015;29;19928;-68
2022/02/05 07:46:43;;;;;;;;;;;3.00;86.40;;;;;;4878725;29;20433;-68
2022/02/05 07:49:12;;;;;;;;;;;3.00;86.80;;;;;;4885648;29;19928;-67
2022/02/05 07:51:40;;;;;;;;;;;3.10;87.10;;;;;;4884120;29;19927;-68
2022/02/05 07:54:11;;;;;;;;;;;3.30;87.00;;;;;;4884112;29;19936;-68
2022/02/05 07:56:48;;;;;;;;;;;3.30;87.00;;;;;;4888034;29;19928;-67
2022/02/05 07:59:16;;;;;;;;;;;3.50;86.90;;;;;;4885658;29;19931;-68
2022/02/05 08:01:44;;;;;;;;;;;3.60;86.60;;;;;;4881361;29;19927;-68
2022/02/05 08:04:12;;;;;;;;;;;3.70;86.40;;;;;;4882187;29;19951;-68
2022/02/05 08:06:40;;;;;;;;;;;3.80;86.20;;;;;;4880942;29;20038;-68
2022/02/05 08:11:47;;;;;;;;;;;3.90;85.90;;;;;;4878991;29;19935;-68
2022/02/05 08:14:15;;;;;;;;;;;3.90;85.80;;;;;;4877890;29;19943;-67
2022/02/05 08:19:10;;;;;;;;;;;4.00;85.70;;;;;;4876129;29;20397;-67
2022/02/05 08:21:38;;;;;;;;;;;4.00;85.60;;;;;;4876751;29;19935;-67
2022/02/05 08:24:05;;;;;;;;;;;4.10;85.50;;;;;;4877633;29;19927;-67
2022/02/05 08:26:35;;;;;;;;;;;4.20;85.60;;;;;;4877572;29;19927;-67
2022/02/05 08:29:03;;;;;;;;;;;4.30;85.30;;;;;;4877034;29;19935;-67
2022/02/05 08:31:30;;;;;;;;;;;4.50;84.80;;;;;;4877820;29;19928;-68
2022/02/05 08:33:58;;;;;;;;;;;4.60;84.50;;;;;;4876538;29;19928;-67
2022/02/05 08:36:26;;;;;;;;;;;4.80;84.20;;;;;;4876611;29;20406;-67
2022/02/05 08:38:54;;;;;;;;;;;4.90;84.00;;;;;;4875171;29;19928;-67
2022/02/05 08:41:21;;;;;;;;;;;4.90;83.70;;;;;;4876580;29;20294;-67
2022/02/05 08:43:49;;;;;;;;;;;5.00;83.40;;;;;;4877478;29;19928;-67
2022/02/05 08:46:16;;;;;;;;;;;5.00;83.20;;;;;;4877494;29;19932;-67
2022/02/05 08:48:43;;;;;;;;;;;5.00;83.20;;;;;;4876139;29;19928;-67
2022/02/05 08:51:13;;;;;;;;;;;5.00;83.10;;;;;;4876442;29;19943;-67
2022/02/05 08:53:42;;;;;;;;;;;5.00;83.10;;;;;;4876018;29;19951;-67
2022/02/05 08:56:09;;;;;;;;;;;4.90;83.20;;;;;;4877612;29;19935;-67
2022/02/05 08:58:37;;;;;;;;;;;4.90;83.50;;;;;;4879828;29;19932;-67
2022/02/05 09:01:12;;;;;;;;;;;4.90;83.60;;;;;;4881151;29;19928;-67
2022/02/05 09:03:48;;;;;;;;;;;4.90;83.70;;;;;;4880639;29;19928;-67
2022/02/05 09:06:18;;;;;;;;;;;4.80;83.90;;;;;;4877161;29;19928;-67
2022/02/05 09:08:53;;;;;;;;;;;4.80;84.10;;;;;;4879868;29;19927;-67
2022/02/05 09:16:21;;;;;;;;;;;4.80;84.50;;;;;;4880982;29;19935;-67
2022/02/05 09:18:48;;;;;;;;;;;4.80;84.60;;;;;;4880368;29;19935;-67
2022/02/05 09:21:16;;;;;;;;;;;4.80;84.60;;;;;;4879718;29;19928;-68
2022/02/05 09:23:52;;;;;;;;;;;4.80;84.60;;;;;;4884495;29;19935;-68
2022/02/05 09:26:20;;;;;;;;;;;4.90;84.60;;;;;;4880918;29;19936;-68
2022/02/05 09:28:48;;;;;;;;;;;5.00;84.60;;;;;;4880678;29;19960;-68
2022/02/05 09:31:31;;;;;;;;;;;5.10;84.50;;;;;;4879885;29;19927;-68
2022/02/05 09:33:58;;;;;;;;;;;5.30;84.40;;;;;;4890880;29;19934;-68
2022/02/05 09:36:26;;;;;;;;;;;5.40;84.20;;;;;;4881171;29;20385;-68
2022/02/05 09:38:55;;;;;;;;;;;5.50;84.20;;;;;;4880077;29;19932;-68
2022/02/05 09:41:23;;;;;;;;;;;5.70;84.00;;;;;;4879167;29;20294;-68
2022/02/05 09:43:50;;;;;;;;;;;5.80;83.50;;;;;;4880611;29;19928;-68
2022/02/05 09:46:19;;;;;;;;;;;6.10;83.00;;;;;;4880115;29;19935;-68
2022/02/05 09:48:48;;;;;;;;;;;6.20;82.30;;;;;;4881068;29;19932;-69
2022/02/05 09:51:18;;;;;;;;;;;6.40;81.80;;;;;;4880168;29;20294;-68
2022/02/05 09:53:47;;;;;;;;;;;6.50;81.40;;;;;;4881765;29;19928;-68
2022/02/05 09:56:15;;;;;;;;;;;6.50;81.30;;;;;;4881117;29;20306;-68
2022/02/05 09:58:43;;;;;;;;;;;6.60;81.20;;;;;;4880396;29;19927;-68
2022/02/05 10:01:18;;;;;;;;;;;6.70;80.80;;;;;;4881643;29;19928;-68
2022/02/05 10:03:47;;;;;;;;;;;6.80;80.40;;;;;;4874807;29;19928;-68
2022/02/05 10:06:20;;;;;;;;;;;6.90;80.30;;;;;;4880001;29;19928;-68
2022/02/05 10:08:58;;;;;;;;;;;6.90;80.40;;;;;;4880286;29;19928;-68
2022/02/05 10:11:29;;;;;;;;;;;7.10;80.20;;;;;;4879424;29;19928;-68
2022/02/05 10:14:12;;;;;;;;;;;7.30;80.00;;;;;;4881172;29;20460;-68
2022/02/05 10:16:40;;;;;;;;;;;7.30;79.60;;;;;;4881390;29;20370;-68
2022/02/05 10:19:08;;;;;;;;;;;7.50;79.40;;;;;;4882914;29;19928;-68
2022/02/05 10:21:35;;;;;;;;;;;7.70;78.80;;;;;;4893001;29;20297;-68
2022/02/05 10:24:08;;;;;;;;;;;7.80;78.40;;;;;;4881340;29;19963;-68
2022/02/05 10:26:36;;;;;;;;;;;7.80;78.00;;;;;;4879598;29;19927;-69
2022/02/05 10:29:06;;;;;;;;;;;7.80;78.40;;;;;;4874370;29;20387;-68
2022/02/05 10:31:53;;;;;;;;;;;7.80;78.40;;;;;;4879578;29;20003;-68
2022/02/05 10:34:22;;;;;;;;;;;7.70;78.90;;;;;;4893666;29;19936;-68
2022/02/05 10:37:09;;;;;;;;;;;7.60;79.60;;;;;;4881453;29;19927;-68
2022/02/05 10:40:03;;;;;;;;;;;7.50;80.20;;;;;;4876013;29;19928;-69
2022/02/05 10:45:10;;;;;;;;;;;7.40;81.00;;;;;;4878577;29;19943;-69
2022/02/05 10:47:47;;;;;;;;;;;7.40;81.30;;;;;;4876875;29;20274;-71
2022/02/05 10:50:19;;;;;;;;;;;7.40;81.30;;;;;;4878460;29;19944;-69
2022/02/05 10:52:54;;;;;;;;;;;7.40;81.30;;;;;;4879622;29;19932;-70
2022/02/05 10:55:37;;;;;;;;;;;7.50;81.40;;;;;;4880558;29;19935;-70
2022/02/05 10:58:20;;;;;;;;;;;7.60;81.30;;;;;;4877739;29;19928;-70
2022/02/05 11:06:01;;;;;;;;;;;7.70;80.80;;;;;;4877761;29;19939;-70
2022/02/05 11:08:29;;;;;;;;;;;7.70;80.80;;;;;;4877464;29;19928;-70
2022/02/05 11:10:58;;;;;;;;;;;7.70;80.90;;;;;;4878175;29;19932;-70
2022/02/05 11:21:14;;;;;;;;;;;7.90;80.90;;;;;;4882238;29;19935;-71
2022/02/05 11:23:45;;;;;;;;;;;7.90;80.50;;;;;;4866121;29;20288;-69
2022/02/05 11:26:14;;;;;;;;;;;7.90;80.50;;;;;;4881940;29;19949;-69
2022/02/05 11:28:41;;;;;;;;;;;8.00;80.50;;;;;;4888148;29;19928;-69
2022/02/05 11:31:13;;;;;;;;;;;8.10;80.40;;;;;;4884347;29;19931;-69
2022/02/05 11:33:43;;;;;;;;;;;8.10;80.40;;;;;;4879316;29;19959;-69
2022/02/05 11:38:44;;;;;;;;;;;8.30;80.10;;;;;;4878831;29;20378;-69
2022/02/05 11:41:23;;;;;;;;;;;8.30;80.00;;;;;;4884292;29;20377;-70
2022/02/05 11:44:10;;;;;;;;;;;8.30;80.30;;;;;;4884201;29;19936;-70
2022/02/05 11:46:38;;;;;;;;;;;8.40;80.00;;;;;;4884282;29;20408;-69
2022/02/05 11:49:06;;;;;;;;;;;8.50;79.50;;;;;;4891607;29;20394;-70
2022/02/05 11:51:42;;;;;;;;;;;8.50;79.80;;;;;;4886230;29;19932;-70
2022/02/05 11:54:15;;;;;;;;;;;8.60;79.50;;;;;;4880984;29;19945;-69
2022/02/05 11:56:56;;;;;;;;;;;8.50;79.60;;;;;;4884328;29;20394;-70
2022/02/05 11:59:23;;;;;;;;;;;8.60;79.70;;;;;;4883137;29;19928;-70
2022/02/05 12:02:08;;;;;;;;;;;8.50;79.60;;;;;;4883652;29;19927;-70
2022/02/05 12:04:35;;;;;;;;;;;8.50;79.60;;;;;;4886164;29;19932;-69
2022/02/05 12:07:07;;;;;;;;;;;8.50;80.00;;;;;;4881244;29;19932;-70
2022/02/05 12:09:55;;;;;;;;;;;8.50;80.50;;;;;;4880899;29;19928;-70
2022/02/05 12:12:36;;;;;;;;;;;8.40;81.10;;;;;;4877488;29;19927;-70
2022/02/05 12:15:14;;;;;;;;;;;8.30;81.80;;;;;;4883052;29;19932;-70
2022/02/05 12:18:06;;;;;;;;;;;8.20;82.70;;;;;;4884956;29;19935;-70
2022/02/05 12:21:14;;;;;;;;;;;8.20;83.10;;;;;;4886310;29;19928;-69
2022/02/05 12:26:17;;;;;;;;;;;8.10;83.30;;;;;;4887540;29;19935;-70
2022/02/05 12:28:49;;;;;;;;;;;8.20;83.10;;;;;;4881434;29;19928;-70
2022/02/05 12:31:16;;;;;;;;;;;8.20;83.20;;;;;;4878862;29;19944;-70
2022/02/05 12:33:54;;;;;;;;;;;8.20;83.20;;;;;;4882767;29;20378;-70
2022/02/05 12:36:37;;;;;;;;;;;8.10;83.50;;;;;;4865621;29;19943;-70
2022/02/05 12:39:07;;;;;;;;;;;8.10;83.40;;;;;;4884110;29;19938;-70
2022/02/05 12:41:36;;;;;;;;;;;8.10;83.80;;;;;;4886320;29;19939;-69
2022/02/05 12:44:05;;;;;;;;;;;8.00;84.10;;;;;;4878069;29;19928;-69
2022/02/05 12:46:36;;;;;;;;;;;8.10;83.80;;;;;;4869955;29;19935;-68
2022/02/05 12:49:10;;;;;;;;;;;8.10;83.70;;;;;;4875700;29;19934;-70
2022/02/05 12:51:41;;;;;;;;;;;8.20;83.60;;;;;;4875338;29;19931;-69
2022/02/05 12:54:12;;;;;;;;;;;8.20;83.50;;;;;;4875381;29;19932;-71
2022/02/05 12:56:41;;;;;;;;;;;8.20;83.20;;;;;;4879129;29;19927;-70
2022/02/05 12:59:13;;;;;;;;;;;8.20;83.20;;;;;;4881257;29;19943;-69
2022/02/05 13:01:51;;;;;;;;;;;8.30;83.10;;;;;;4883697;29;19928;-70
2022/02/05 13:04:20;;;;;;;;;;;8.30;82.80;;;;;;4880232;29;19931;-69
2022/02/05 13:07:01;;;;;;;;;;;8.30;82.80;;;;;;4885227;29;19935;-71
2022/02/05 13:09:29;;;;;;;;;;;8.30;82.50;;;;;;4888004;29;19928;-68
2022/02/05 13:12:00;;;;;;;;;;;8.30;83.10;;;;;;4882159;29;19947;-70
2022/02/05 13:14:44;;;;;;;;;;;8.30;83.00;;;;;;4886088;29;19936;-70
2022/02/05 13:17:29;;;;;;;;;;;8.30;83.20;;;;;;4886307;29;19928;-69
2022/02/05 13:28:12;;;;;;;;;;;8.20;84.40;;;;;;4887598;29;19927;-69
2022/02/05 13:39:00;;;;;;;;;;;8.30;83.90;;;;;;4888538;29;19935;-69
2022/02/05 13:41:44;;;;;;;;;;;8.30;83.50;;;;;;4887111;29;20322;-69
2022/02/05 13:44:16;;;;;;;;;;;8.30;83.30;;;;;;4886947;29;20294;-69
2022/02/05 13:47:02;;;;;;;;;;;8.30;82.70;;;;;;4885844;29;19935;-73
2022/02/05 13:49:30;;;;;;;;;;;8.40;82.60;;;;;;4887492;29;19936;-69
2022/02/05 13:52:04;;;;;;;;;;;8.50;82.50;;;;;;4885005;29;20302;-69
2022/02/05 13:54:35;;;;;;;;;;;8.50;82.20;;;;;;4888135;29;19935;-70
2022/02/05 13:57:03;;;;;;;;;;;8.50;82.00;;;;;;4882458;29;20386;-70
2022/02/05 13:59:33;;;;;;;;;;;8.50;82.00;;;;;;4883532;29;19943;-70
2022/02/05 14:02:20;;;;;;;;;;;8.50;81.80;;;;;;4881329;29;20326;-69
2022/02/05 14:05:11;;;;;;;;;;;8.50;81.80;;;;;;4881470;29;20287;-70
2022/02/05 14:07:42;;;;;;;;;;;8.60;81.40;;;;;;4884447;29;20313;-69
2022/02/05 14:10:15;;;;;;;;;;;8.60;81.70;;;;;;4869460;29;19951;-70
2022/02/05 14:12:46;;;;;;;;;;;8.70;81.60;;;;;;4880627;29;20286;-69
2022/02/05 14:15:14;;;;;;;;;;;8.70;81.90;;;;;;4883348;29;19935;-70
2022/02/05 14:17:42;;;;;;;;;;;8.70;82.20;;;;;;4878727;29;19935;-70
2022/02/05 14:20:11;;;;;;;;;;;8.70;82.10;;;;;;4879764;29;20224;-70
2022/02/05 14:22:42;;;;;;;;;;;8.70;82.00;;;;;;4879330;29;19934;-70
2022/02/05 14:25:15;;;;;;;;;;;8.70;82.00;;;;;;4879469;29;19931;-70
2022/02/05 14:28:28;;;;;;;;;;;8.70;81.80;;;;;;4878033;29;20297;-71
2022/02/05 14:31:13;;;;;;;;;;;8.70;82.00;;;;;;4893228;29;19928;-71
2022/02/05 14:34:03;;;;;;;;;;;8.70;82.10;;;;;;4895798;29;19928;-70
2022/02/05 14:42:08;;;;;;;;;;;8.70;82.00;;;;;;4893982;29;19947;-71
2022/02/05 14:44:42;;;;;;;;;;;8.70;82.00;;;;;;4879674;29;20348;-70
2022/02/05 14:47:10;;;;;;;;;;;8.60;82.00;;;;;;4880383;29;19932;-70
2022/02/05 14:49:40;;;;;;;;;;;8.50;81.90;;;;;;4893620;29;20317;-70
2022/02/05 14:52:12;;;;;;;;;;;8.40;82.40;;;;;;4893677;29;20348;-71
2022/02/05 14:54:40;;;;;;;;;;;8.30;82.70;;;;;;4895957;29;20077;-71
2022/02/05 14:57:07;;;;;;;;;;;8.30;82.90;;;;;;4867449;29;19928;-69
2022/02/05 14:59:35;;;;;;;;;;;8.20;83.20;;;;;;4896443;29;20403;-70
2022/02/05 15:02:04;;;;;;;;;;;8.10;83.70;;;;;;4894306;29;20377;-69
2022/02/05 15:04:36;;;;;;;;;;;8.00;84.00;;;;;;4887948;29;19935;-69
2022/02/05 15:07:04;;;;;;;;;;;8.00;84.20;;;;;;4878037;29;19927;-69
2022/02/05 15:09:32;;;;;;;;;;;8.00;84.70;;;;;;4877112;29;20405;-69
2022/02/05 15:12:00;;;;;;;;;;;7.90;84.70;;;;;;4892636;29;19936;-68
2022/02/05 15:14:27;;;;;;;;;;;7.90;84.80;;;;;;4869435;29;20433;-68
2022/02/05 15:16:55;;;;;;;;;;;7.90;85.00;;;;;;4882029;29;19935;-69
2022/02/05 15:19:22;;;;;;;;;;;7.90;84.80;;;;;;4881741;29;19935;-69
2022/02/05 15:21:50;;;;;;;;;;;7.80;85.20;;;;;;4878452;29;20437;-69
2022/02/05 15:24:17;;;;;;;;;;;7.90;85.30;;;;;;4877912;29;19936;-68
2022/02/05 15:26:45;;;;;;;;;;;7.90;85.10;;;;;;4878037;29;20299;-69
2022/02/05 15:29:13;;;;;;;;;;;7.90;85.30;;;;;;4877456;29;19935;-68
2022/02/05 15:31:43;;;;;;;;;;;7.90;85.30;;;;;;4878607;29;19931;-68
2022/02/05 15:34:10;;;;;;;;;;;7.90;85.20;;;;;;4878515;29;19932;-68
2022/02/05 15:44:35;;;;;;;;;;;8.00;85.20;;;;;;4878544;29;19935;-68
2022/02/05 15:47:03;;;;;;;;;;;8.00;85.40;;;;;;4878011;29;20654;-68
2022/02/05 15:49:31;;;;;;;;;;;7.90;85.70;;;;;;4875842;29;19936;-68
2022/02/05 15:51:59;;;;;;;;;;;7.90;86.10;;;;;;4878553;29;19935;-67
2022/02/05 15:54:29;;;;;;;;;;;7.80;86.40;;;;;;4877588;29;19928;-68
2022/02/05 15:59:42;;;;;;;;;;;7.70;86.80;;;;;;4875214;29;19934;-67
2022/02/05 16:02:09;;;;;;;;;;;7.70;87.00;;;;;;4877772;29;19928;-68
2022/02/05 16:04:37;;;;;;;;;;;7.70;87.10;;;;;;4872510;29;19936;-68
2022/02/05 16:07:06;;;;;;;;;;;7.70;87.00;;;;;;4866270;29;20346;-68
2022/02/05 16:09:34;;;;;;;;;;;7.70;87.00;;;;;;4876942;29;19928;-68
2022/02/05 16:12:07;;;;;;;;;;;7.80;87.10;;;;;;4877051;29;19928;-67
2022/02/05 16:14:35;;;;;;;;;;;7.80;86.80;;;;;;4876473;29;20378;-68
2022/02/05 16:17:02;;;;;;;;;;;7.80;86.80;;;;;;4877013;29;20002;-68
2022/02/05 16:19:30;;;;;;;;;;;7.80;86.80;;;;;;4877382;29;20310;-68
2022/02/05 16:21:58;;;;;;;;;;;7.80;86.70;;;;;;4869104;29;19946;-68
2022/02/05 16:24:25;;;;;;;;;;;7.90;86.70;;;;;;4875324;29;19928;-68
2022/02/05 16:26:53;;;;;;;;;;;7.90;86.30;;;;;;4876775;29;19934;-69
2022/02/05 16:29:26;;;;;;;;;;;8.00;86.10;;;;;;4876387;29;19935;-68
2022/02/05 16:31:54;;;;;;;;;;;8.00;86.30;;;;;;4876970;29;19927;-68
2022/02/05 16:34:24;;;;;;;;;;;8.00;86.30;;;;;;4876959;29;19927;-69
2022/02/05 16:36:52;;;;;;;;;;;8.00;86.30;;;;;;4878731;29;19927;-69
2022/02/05 16:39:24;;;;;;;;;;;8.10;86.30;;;;;;4875497;29;19928;-69
2022/02/05 16:41:52;;;;;;;;;;;8.10;86.20;;;;;;4876720;29;19932;-69
2022/02/05 16:44:21;;;;;;;;;;;8.10;86.10;;;;;;4875603;29;20319;-69
2022/02/05 16:46:52;;;;;;;;;;;8.10;86.30;;;;;;4872536;29;20334;-69
2022/02/05 16:49:20;;;;;;;;;;;8.10;86.40;;;;;;4873394;29;19928;-68
2022/02/05 16:51:50;;;;;;;;;;;8.10;86.60;;;;;;4874484;29;20297;-69
2022/02/05 16:54:19;;;;;;;;;;;8.10;86.70;;;;;;4875186;29;19936;-69
2022/02/05 16:56:47;;;;;;;;;;;8.00;86.90;;;;;;4876565;29;20006;-69
2022/02/05 16:59:14;;;;;;;;;;;8.00;87.00;;;;;;4875177;29;19935;-69
2022/02/05 17:01:42;;;;;;;;;;;8.10;86.90;;;;;;4875455;29;19932;-68
2022/02/05 17:04:10;;;;;;;;;;;8.10;87.00;;;;;;4886644;29;20301;-68
2022/02/05 17:06:38;;;;;;;;;;;8.10;87.10;;;;;;4874844;29;20107;-68
2022/02/05 17:09:06;;;;;;;;;;;8.00;87.20;;;;;;4858980;29;19928;-68
2022/02/05 17:11:35;;;;;;;;;;;8.10;87.30;;;;;;4875792;29;19939;-69
2022/02/05 17:14:03;;;;;;;;;;;8.10;87.20;;;;;;4876431;29;19966;-69
2022/02/05 17:16:32;;;;;;;;;;;8.10;87.20;;;;;;4876275;29;20375;-69
2022/02/05 17:19:00;;;;;;;;;;;8.20;87.00;;;;;;4881629;29;19928;-68
2022/02/05 17:21:28;;;;;;;;;;;8.20;87.00;;;;;;4875964;29;19928;-69
2022/02/05 17:23:56;;;;;;;;;;;8.20;87.00;;;;;;4879870;29;19934;-69
2022/02/05 17:26:27;;;;;;;;;;;8.20;86.90;;;;;;4878522;29;20530;-69
2022/02/05 17:28:55;;;;;;;;;;;8.30;86.70;;;;;;4878921;29;19943;-70
2022/02/05 17:31:24;;;;;;;;;;;8.30;86.50;;;;;;4879247;29;19931;-70
2022/02/05 17:33:54;;;;;;;;;;;8.30;86.30;;;;;;4881342;29;19936;-67
2022/02/05 17:36:23;;;;;;;;;;;8.30;86.10;;;;;;4879780;29;19939;-69
2022/02/05 17:38:52;;;;;;;;;;;8.30;85.90;;;;;;4895768;29;19935;-68
2022/02/05 17:41:21;;;;;;;;;;;8.40;85.70;;;;;;4883464;29;19927;-70
2022/02/05 17:43:49;;;;;;;;;;;8.40;85.60;;;;;;4879945;29;19927;-69
2022/02/05 17:46:17;;;;;;;;;;;8.40;85.70;;;;;;4876903;29;19935;-69
2022/02/05 17:48:44;;;;;;;;;;;8.40;85.70;;;;;;4880227;29;19946;-70
2022/02/05 17:51:12;;;;;;;;;;;8.40;85.90;;;;;;4876883;29;19943;-70
2022/02/05 17:53:40;;;;;;;;;;;8.40;85.90;;;;;;4858401;29;19934;-70
2022/02/05 17:56:08;;;;;;;;;;;8.40;85.70;;;;;;4881970;29;19931;-69
2022/02/05 17:58:38;;;;;;;;;;;8.40;85.50;;;;;;4879540;29;20486;-71